Portada
METAR-TAF:

METAR-TAF

Aeroports :

Aeroport Internacional de Tunis

Tunis, Tunísia

latitud: 36-50N, longitud: 010-14E, altitud: 3 m

Observació

L'informe es va fer fa 26 minuts, a les 15:30 UTC
Vent 12 kt del Est/Sud-Est amb ràfegues de 22 kt, variant entre Nord-Est i Sud
Temperatura 36°C
Humitat 22%
Pressió 1008 hPa
Visibilitat 10 km o més
sense núvols per sota de 1500 mi sense presència de cumulonimbus.

METAR: DTTA 251530Z 11012G22KT 050V170 CAVOK 36/11 Q1008

Hora: 16:56 (15:56 UTC)

Pronòstic

L'informe es va fer fa 4 hores i 56 minuts, a les 11:00 UTC
Pronòstic vàlid del 25 a les 12 UTC al 26 a les 12 UTC
Vent 12 kt del Sud/Sud-Est
Visibilitat 10 km o més
sense núvols per sota de 1500 mi sense presència de cumulonimbus.
Probabilitat 40% :
Temporalment
l' 25 a les 12 UTC al 25 a les 20 UTC
Vent 17 kt del Sud amb ràfegues de 27 kt

TAF: DTTA 251100Z 2512/2612 16012KT CAVOK PROB40 TEMPO 2512/2520 17017G27KT

Observacions i pronòstics meteorològics de més de 4000 aeroports (METAR i TAF).

Les estacions disponibles són els punts grocs i vermells al mapa.

Posi el ratolí al punt desitjat per veure el nom de l'estació.

Feu clic per veure les observacions i els pronòstics meteorològics.

Per canviar el mapa: feu clic els botons verds amb una creu de color negre per apropar; al botó verd amb un guió per allunyar la imatge; o en les fletxes verdes per a mapes adjacents.


METAR-TAF: